createdAt,value
2019-01-25T00:00:10.351Z,1010.66
2019-01-25T00:01:10.367Z,1010.66
2019-01-25T00:02:10.324Z,1010.69
2019-01-25T00:03:10.599Z,1010.68
2019-01-25T00:04:10.293Z,1010.64
2019-01-25T00:05:10.289Z,1010.67
2019-01-25T00:06:10.265Z,1010.62
2019-01-25T00:07:10.251Z,1010.62
2019-01-25T00:08:10.236Z,1010.65
2019-01-25T00:09:10.221Z,1010.63
2019-01-25T00:10:10.208Z,1010.64
2019-01-25T00:11:10.182Z,1010.65
2019-01-25T00:12:10.181Z,1010.62
2019-01-25T00:13:10.168Z,1010.65
2019-01-25T00:14:10.155Z,1010.63
2019-01-25T00:15:10.133Z,1010.61
2019-01-25T00:16:10.128Z,1010.66
2019-01-25T00:17:10.155Z,1010.65
2019-01-25T00:18:10.095Z,1010.68
2019-01-25T00:19:10.085Z,1010.72
2019-01-25T00:20:10.120Z,1010.64
2019-01-25T00:21:10.056Z,1010.64
2019-01-25T00:22:10.033Z,1010.67
2019-01-25T00:23:10.032Z,1010.68
2019-01-25T00:24:10.006Z,1010.67
2019-01-25T00:25:09.982Z,1010.68
2019-01-25T00:26:09.973Z,1010.68
2019-01-25T00:27:09.961Z,1010.67
2019-01-25T00:28:09.949Z,1010.68
2019-01-25T00:29:09.935Z,1010.69
2019-01-25T00:30:09.916Z,1010.64
2019-01-25T00:31:09.903Z,1010.67
2019-01-25T00:32:09.896Z,1010.67
2019-01-25T00:33:09.876Z,1010.68
2019-01-25T00:34:09.860Z,1010.67
2019-01-25T00:35:09.843Z,1010.70
2019-01-25T00:36:09.845Z,1010.68
2019-01-25T00:37:09.819Z,1010.67
2019-01-25T00:38:09.803Z,1010.68
2019-01-25T00:39:09.787Z,1010.67
2019-01-25T00:40:09.777Z,1010.64
2019-01-25T00:41:09.764Z,1010.65
2019-01-25T00:42:09.751Z,1010.64
2019-01-25T00:43:09.732Z,1010.65
2019-01-25T00:44:09.725Z,1010.67
2019-01-25T00:45:09.708Z,1010.66
2019-01-25T00:46:09.698Z,1010.67
2019-01-25T00:47:09.679Z,1010.70
2019-01-25T00:48:09.663Z,1010.66
2019-01-25T00:49:09.649Z,1010.73
2019-01-25T00:50:09.631Z,1010.68
2019-01-25T00:51:09.616Z,1010.72
2019-01-25T00:52:09.604Z,1010.72
2019-01-25T00:53:09.594Z,1010.75
2019-01-25T00:54:09.572Z,1010.73
2019-01-25T00:55:09.552Z,1010.74
2019-01-25T00:56:09.547Z,1010.76
2019-01-25T00:57:09.537Z,1010.74
2019-01-25T00:58:09.523Z,1010.74
2019-01-25T00:59:09.499Z,1010.75
2019-01-25T01:00:09.491Z,1010.78
2019-01-25T01:01:09.477Z,1010.77
2019-01-25T01:02:09.460Z,1010.80
2019-01-25T01:03:09.447Z,1010.78
2019-01-25T01:04:09.430Z,1010.81
2019-01-25T01:05:09.419Z,1010.77
2019-01-25T01:06:09.402Z,1010.80
2019-01-25T01:07:09.392Z,1010.79
2019-01-25T01:08:09.364Z,1010.83
2019-01-25T01:09:09.356Z,1010.81
2019-01-25T01:10:13.968Z,1010.83
2019-01-25T01:11:09.326Z,1010.81
2019-01-25T01:12:09.322Z,1010.81
2019-01-25T01:13:09.304Z,1010.83
2019-01-25T01:14:09.284Z,1010.87
2019-01-25T01:15:09.272Z,1010.82
2019-01-25T01:16:09.262Z,1010.85
2019-01-25T01:17:09.248Z,1010.89
2019-01-25T01:18:09.228Z,1010.88
2019-01-25T01:19:09.210Z,1010.89
2019-01-25T01:20:09.202Z,1010.85
2019-01-25T01:21:09.187Z,1010.88
2019-01-25T01:22:09.171Z,1010.86
2019-01-25T01:23:09.162Z,1010.86
2019-01-25T01:24:09.142Z,1010.86
2019-01-25T01:25:09.132Z,1010.88
2019-01-25T01:26:09.112Z,1010.90
2019-01-25T01:27:09.109Z,1010.86
2019-01-25T01:28:09.085Z,1010.87
2019-01-25T01:29:09.072Z,1010.88
2019-01-25T01:30:09.058Z,1010.86
2019-01-25T01:31:09.080Z,1010.86
2019-01-25T01:32:09.030Z,1010.88
2019-01-25T01:33:09.020Z,1010.92
2019-01-25T01:34:08.999Z,1010.89
2019-01-25T01:35:08.992Z,1010.90
2019-01-25T01:36:08.972Z,1010.90
2019-01-25T01:37:08.963Z,1010.91
2019-01-25T01:38:08.955Z,1010.86
2019-01-25T01:39:08.929Z,1010.94
2019-01-25T01:40:08.920Z,1010.93
2019-01-25T01:41:08.903Z,1010.94
2019-01-25T01:42:08.887Z,1010.91
2019-01-25T01:43:08.881Z,1010.91
2019-01-25T01:44:08.862Z,1010.94
2019-01-25T01:45:08.846Z,1010.95
2019-01-25T01:46:08.868Z,1010.98
2019-01-25T01:47:08.819Z,1010.97
2019-01-25T01:48:08.793Z,1010.98
2019-01-25T01:49:08.793Z,1010.97
2019-01-25T01:50:08.774Z,1010.97
2019-01-25T01:51:08.762Z,1011.00
2019-01-25T01:52:08.780Z,1010.95
2019-01-25T01:53:08.735Z,1010.97
2019-01-25T01:54:08.713Z,1010.93
2019-01-25T01:55:08.699Z,1010.95
2019-01-25T01:56:08.717Z,1010.93
2019-01-25T01:57:08.685Z,1010.94
2019-01-25T01:58:08.666Z,1010.95
2019-01-25T01:59:08.653Z,1010.96
2019-01-25T02:00:08.634Z,1010.95
2019-01-25T02:01:08.623Z,1010.93
2019-01-25T02:02:08.618Z,1010.94
2019-01-25T02:03:08.593Z,1010.90
2019-01-25T02:04:08.573Z,1010.93
2019-01-25T02:05:08.565Z,1010.89
2019-01-25T02:06:08.564Z,1010.90
2019-01-25T02:07:08.538Z,1010.94
2019-01-25T02:08:08.523Z,1010.89
2019-01-25T02:09:08.504Z,1010.93
2019-01-25T02:10:08.488Z,1010.92
2019-01-25T02:11:08.482Z,1010.91
2019-01-25T02:12:08.463Z,1010.88
2019-01-25T02:13:08.460Z,1010.87
2019-01-25T02:14:08.432Z,1010.87
2019-01-25T02:15:08.417Z,1010.85
2019-01-25T02:16:08.410Z,1010.85
2019-01-25T02:17:08.392Z,1010.87
2019-01-25T02:18:08.404Z,1010.88
2019-01-25T02:19:08.362Z,1010.85
2019-01-25T02:20:08.352Z,1010.85
2019-01-25T02:21:08.335Z,1010.84
2019-01-25T02:22:08.323Z,1010.82
2019-01-25T02:23:08.306Z,1010.84
2019-01-25T02:24:08.294Z,1010.82
2019-01-25T02:25:08.279Z,1010.83
2019-01-25T02:26:08.264Z,1010.84
2019-01-25T02:27:08.254Z,1010.86
2019-01-25T02:28:08.235Z,1010.83
2019-01-25T02:29:08.223Z,1010.80
2019-01-25T02:30:08.204Z,1010.80
2019-01-25T02:31:08.191Z,1010.83
2019-01-25T02:32:08.183Z,1010.82
2019-01-25T02:33:08.166Z,1010.80
2019-01-25T02:34:08.148Z,1010.79
2019-01-25T02:35:08.134Z,1010.73
2019-01-25T02:36:08.119Z,1010.76
2019-01-25T02:37:08.110Z,1010.71
2019-01-25T02:38:08.088Z,1010.70
2019-01-25T02:39:08.081Z,1010.69
2019-01-25T02:40:08.058Z,1010.69
2019-01-25T02:41:08.048Z,1010.69
2019-01-25T02:42:08.026Z,1010.70
2019-01-25T02:43:08.020Z,1010.69
2019-01-25T02:44:08.014Z,1010.69
2019-01-25T02:45:07.989Z,1010.63
2019-01-25T02:46:07.974Z,1010.67
2019-01-25T02:47:07.955Z,1010.64
2019-01-25T02:48:07.949Z,1010.65
2019-01-25T02:49:07.944Z,1010.65
2019-01-25T02:50:07.923Z,1010.64
2019-01-25T02:51:07.893Z,1010.66
2019-01-25T02:52:08.437Z,1010.63
2019-01-25T02:53:07.869Z,1010.64
2019-01-25T02:54:07.883Z,1010.63
2019-01-25T02:55:07.854Z,1010.63
2019-01-25T02:56:07.828Z,1010.64
2019-01-25T02:57:07.816Z,1010.66
2019-01-25T02:58:07.820Z,1010.63
2019-01-25T02:59:07.791Z,1010.64
2019-01-25T03:00:07.772Z,1010.64
2019-01-25T03:01:07.758Z,1010.65
2019-01-25T03:02:07.746Z,1010.63
2019-01-25T03:03:07.732Z,1010.66
2019-01-25T03:04:07.713Z,1010.65
2019-01-25T03:05:07.701Z,1010.66
2019-01-25T03:06:07.686Z,1010.64
2019-01-25T03:07:07.672Z,1010.65
2019-01-25T03:08:07.661Z,1010.64
2019-01-25T03:09:07.645Z,1010.65
2019-01-25T03:10:07.642Z,1010.61
2019-01-25T03:11:07.616Z,1010.63
2019-01-25T03:12:07.596Z,1010.58
2019-01-25T03:13:07.584Z,1010.63
2019-01-25T03:14:07.570Z,1010.61
2019-01-25T03:15:07.557Z,1010.63
2019-01-25T03:16:07.545Z,1010.61
2019-01-25T03:17:07.522Z,1010.62
2019-01-25T03:18:07.517Z,1010.62
2019-01-25T03:19:07.504Z,1010.62
2019-01-25T03:20:07.491Z,1010.63
2019-01-25T03:21:07.470Z,1010.61
2019-01-25T03:22:07.458Z,1010.64
2019-01-25T03:23:07.443Z,1010.65
2019-01-25T03:24:07.429Z,1010.68
2019-01-25T03:25:07.419Z,1010.64
2019-01-25T03:26:07.396Z,1010.65
2019-01-25T03:27:07.379Z,1010.69
2019-01-25T03:28:07.370Z,1010.63
2019-01-25T03:29:07.361Z,1010.64
2019-01-25T03:30:07.348Z,1010.67
2019-01-25T03:31:07.332Z,1010.64
2019-01-25T03:32:07.310Z,1010.64
2019-01-25T03:33:07.304Z,1010.61
2019-01-25T03:34:07.290Z,1010.62
2019-01-25T03:35:07.271Z,1010.63
2019-01-25T03:36:07.250Z,1010.63
2019-01-25T03:37:07.240Z,1010.65
2019-01-25T03:38:07.223Z,1010.70
2019-01-25T03:39:07.209Z,1010.72
2019-01-25T03:40:07.196Z,1010.72
2019-01-25T03:41:07.200Z,1010.72
2019-01-25T03:42:07.163Z,1010.71
2019-01-25T03:43:07.154Z,1010.68
2019-01-25T03:44:07.139Z,1010.70
2019-01-25T03:45:07.128Z,1010.71
2019-01-25T03:46:07.106Z,1010.71
2019-01-25T03:47:07.096Z,1010.72
2019-01-25T03:48:07.080Z,1010.70
2019-01-25T03:49:07.067Z,1010.73
2019-01-25T03:50:07.053Z,1010.73
2019-01-25T03:51:07.042Z,1010.75
2019-01-25T03:52:07.034Z,1010.75
2019-01-25T03:53:07.011Z,1010.75
2019-01-25T03:54:06.995Z,1010.77
2019-01-25T03:55:06.978Z,1010.75
2019-01-25T03:56:06.966Z,1010.77
2019-01-25T03:57:06.958Z,1010.81
2019-01-25T03:58:06.937Z,1010.80
2019-01-25T03:59:06.931Z,1010.79
2019-01-25T04:00:06.926Z,1010.79
2019-01-25T04:01:06.895Z,1010.80
2019-01-25T04:02:06.878Z,1010.75
2019-01-25T04:03:06.865Z,1010.76
2019-01-25T04:04:06.859Z,1010.78
2019-01-25T04:05:06.837Z,1010.80
2019-01-25T04:06:06.825Z,1010.79
2019-01-25T04:07:06.810Z,1010.80
2019-01-25T04:08:06.801Z,1010.76
2019-01-25T04:09:06.786Z,1010.80
2019-01-25T04:10:06.770Z,1010.81
2019-01-25T04:11:06.750Z,1010.80
2019-01-25T04:12:06.736Z,1010.81
2019-01-25T04:13:06.723Z,1010.78
2019-01-25T04:14:06.709Z,1010.79
2019-01-25T04:15:06.695Z,1010.81
2019-01-25T04:16:06.682Z,1010.79
2019-01-25T04:17:06.667Z,1010.78
2019-01-25T04:18:06.653Z,1010.75
2019-01-25T04:19:06.642Z,1010.74
2019-01-25T04:20:06.628Z,1010.76
2019-01-25T04:21:06.612Z,1010.71
2019-01-25T04:22:06.595Z,1010.76
2019-01-25T04:23:06.582Z,1010.74
2019-01-25T04:24:07.241Z,1010.79
2019-01-25T04:25:06.557Z,1010.79
2019-01-25T04:26:06.542Z,1010.77
2019-01-25T04:27:06.524Z,1010.73
2019-01-25T04:28:06.510Z,1010.72
2019-01-25T04:29:06.499Z,1010.75
2019-01-25T04:30:06.480Z,1010.77
2019-01-25T04:31:06.469Z,1010.80
2019-01-25T04:32:06.457Z,1010.83
2019-01-25T04:33:06.438Z,1010.78
2019-01-25T04:34:06.437Z,1010.82
2019-01-25T04:35:06.414Z,1010.84
2019-01-25T04:36:06.397Z,1010.80
2019-01-25T04:37:06.380Z,1010.79
2019-01-25T04:38:06.366Z,1010.83
2019-01-25T04:39:06.352Z,1010.83
2019-01-25T04:40:06.337Z,1010.83
2019-01-25T04:41:11.516Z,1010.81
2019-01-25T04:42:06.311Z,1010.84
2019-01-25T04:43:06.294Z,1010.84
2019-01-25T04:44:06.282Z,1010.82
2019-01-25T04:45:06.273Z,1010.83
2019-01-25T04:46:06.252Z,1010.81
2019-01-25T04:47:06.241Z,1010.80
2019-01-25T04:48:06.226Z,1010.81
2019-01-25T04:49:06.209Z,1010.84
2019-01-25T04:50:06.196Z,1010.81
2019-01-25T04:51:06.182Z,1010.80
2019-01-25T04:52:06.167Z,1010.79
2019-01-25T04:53:06.155Z,1010.78
2019-01-25T04:54:06.141Z,1010.80
2019-01-25T04:55:06.139Z,1010.82
2019-01-25T04:56:06.112Z,1010.77
2019-01-25T04:57:06.101Z,1010.78
2019-01-25T04:58:06.087Z,1010.79
2019-01-25T04:59:06.071Z,1010.82
2019-01-25T05:00:06.057Z,1010.79
2019-01-25T05:01:06.039Z,1010.84
2019-01-25T05:02:06.026Z,1010.83
2019-01-25T05:03:06.012Z,1010.82
2019-01-25T05:04:05.997Z,1010.83
2019-01-25T05:05:05.981Z,1010.80
2019-01-25T05:06:05.974Z,1010.80
2019-01-25T05:07:05.954Z,1010.85
2019-01-25T05:08:05.942Z,1010.83
2019-01-25T05:09:05.929Z,1010.86
2019-01-25T05:10:05.916Z,1010.90
2019-01-25T05:11:05.901Z,1010.91
2019-01-25T05:12:05.887Z,1010.91
2019-01-25T05:13:05.880Z,1010.87
2019-01-25T05:14:05.860Z,1010.89
2019-01-25T05:15:05.846Z,1010.87
2019-01-25T05:16:05.831Z,1010.91
2019-01-25T05:17:05.821Z,1010.93
2019-01-25T05:18:05.799Z,1010.86
2019-01-25T05:19:05.790Z,1010.86
2019-01-25T05:20:05.767Z,1010.88
2019-01-25T05:21:05.762Z,1010.93
2019-01-25T05:22:05.747Z,1010.93
2019-01-25T05:23:05.734Z,1010.96
2019-01-25T05:24:05.717Z,1010.98
2019-01-25T05:25:05.702Z,1010.95
2019-01-25T05:26:05.689Z,1010.97
2019-01-25T05:27:05.673Z,1010.97
2019-01-25T05:28:05.660Z,1010.97
2019-01-25T05:29:05.646Z,1010.99
2019-01-25T05:30:05.632Z,1010.94
2019-01-25T05:31:05.617Z,1010.92
2019-01-25T05:32:05.622Z,1010.90
2019-01-25T05:33:05.590Z,1010.88
2019-01-25T05:34:05.577Z,1010.85
2019-01-25T05:35:05.563Z,1010.88
2019-01-25T05:36:05.548Z,1010.88
2019-01-25T05:37:05.532Z,1010.86
2019-01-25T05:38:05.518Z,1010.86
2019-01-25T05:39:05.503Z,1010.82
2019-01-25T05:40:05.494Z,1010.80
2019-01-25T05:41:05.492Z,1010.85
2019-01-25T05:42:05.463Z,1010.82
2019-01-25T05:43:05.448Z,1010.84
2019-01-25T05:44:05.434Z,1010.85
2019-01-25T05:45:05.425Z,1010.85
2019-01-25T05:46:05.406Z,1010.85
2019-01-25T05:47:05.396Z,1010.82
2019-01-25T05:48:05.379Z,1010.83
2019-01-25T05:49:05.364Z,1010.85
2019-01-25T05:50:05.348Z,1010.79
2019-01-25T05:51:05.333Z,1010.81
2019-01-25T05:52:05.321Z,1010.78
2019-01-25T05:53:05.311Z,1010.78
2019-01-25T05:54:05.296Z,1010.82
2019-01-25T05:55:06.279Z,1010.78
2019-01-25T05:56:05.268Z,1010.80
2019-01-25T05:57:05.251Z,1010.81
2019-01-25T05:58:05.236Z,1010.81
2019-01-25T05:59:05.221Z,1010.80
2019-01-25T06:00:05.207Z,1010.77
2019-01-25T06:01:05.193Z,1010.78
2019-01-25T06:02:05.181Z,1010.81
2019-01-25T06:03:05.166Z,1010.81
2019-01-25T06:04:05.150Z,1010.82
2019-01-25T06:05:05.140Z,1010.83
2019-01-25T06:06:05.122Z,1010.86
2019-01-25T06:07:05.109Z,1010.83
2019-01-25T06:08:05.106Z,1010.86
2019-01-25T06:09:05.082Z,1010.90
2019-01-25T06:10:05.073Z,1010.83
2019-01-25T06:11:05.059Z,1010.82
2019-01-25T06:12:05.040Z,1010.81
2019-01-25T06:13:05.031Z,1010.78
2019-01-25T06:14:05.009Z,1010.79
2019-01-25T06:15:04.997Z,1010.80
2019-01-25T06:16:04.982Z,1010.80
2019-01-25T06:17:04.970Z,1010.76
2019-01-25T06:18:04.960Z,1010.79
2019-01-25T06:19:04.940Z,1010.78
2019-01-25T06:20:04.925Z,1010.81
2019-01-25T06:21:04.913Z,1010.83
2019-01-25T06:22:04.898Z,1010.86
2019-01-25T06:23:04.884Z,1010.83
2019-01-25T06:24:04.869Z,1010.80
2019-01-25T06:25:04.857Z,1010.84
2019-01-25T06:26:04.839Z,1010.84
2019-01-25T06:27:04.830Z,1010.84
2019-01-25T06:28:04.828Z,1010.82
2019-01-25T06:29:04.798Z,1010.85
2019-01-25T06:30:04.788Z,1010.87
2019-01-25T06:31:04.768Z,1010.88
2019-01-25T06:32:04.757Z,1010.88
2019-01-25T06:33:04.746Z,1010.90
2019-01-25T06:34:04.727Z,1010.92
2019-01-25T06:35:04.714Z,1010.91
2019-01-25T06:36:04.699Z,1010.93
2019-01-25T06:37:04.687Z,1010.95
2019-01-25T06:38:04.675Z,1010.97
2019-01-25T06:39:04.654Z,1010.99
2019-01-25T06:40:04.649Z,1011.00
2019-01-25T06:41:04.628Z,1010.99
2019-01-25T06:42:04.616Z,1011.02
2019-01-25T06:43:04.604Z,1011.03
2019-01-25T06:44:04.588Z,1011.07
2019-01-25T06:45:04.573Z,1011.06
2019-01-25T06:46:04.558Z,1011.05
2019-01-25T06:47:04.547Z,1011.06
2019-01-25T06:48:04.532Z,1011.09
2019-01-25T06:49:04.518Z,1011.09
2019-01-25T06:50:04.503Z,1011.09
2019-01-25T06:51:04.489Z,1011.09
2019-01-25T06:52:05.914Z,1011.08
2019-01-25T06:53:04.460Z,1011.11
2019-01-25T06:54:04.449Z,1011.09
2019-01-25T06:55:04.434Z,1011.08
2019-01-25T06:56:04.420Z,1011.10
2019-01-25T06:57:04.407Z,1011.09
2019-01-25T06:58:05.392Z,1011.14
2019-01-25T06:59:04.381Z,1011.14
2019-01-25T07:00:04.367Z,1011.09
2019-01-25T07:01:04.355Z,1011.12
2019-01-25T07:02:04.336Z,1011.16
2019-01-25T07:03:04.324Z,1011.19
2019-01-25T07:04:05.243Z,1011.20
2019-01-25T07:05:04.294Z,1011.22
2019-01-25T07:06:04.284Z,1011.25
2019-01-25T07:07:04.265Z,1011.21
2019-01-25T07:08:04.255Z,1011.23
2019-01-25T07:09:04.240Z,1011.23
2019-01-25T07:10:04.224Z,1011.23
2019-01-25T07:11:04.214Z,1011.22
2019-01-25T07:12:04.200Z,1011.25
2019-01-25T07:13:04.185Z,1011.23
2019-01-25T07:14:04.169Z,1011.21
2019-01-25T07:15:04.159Z,1011.23
2019-01-25T07:16:04.143Z,1011.30
2019-01-25T07:17:04.130Z,1011.24
2019-01-25T07:18:04.112Z,1011.26
2019-01-25T07:19:04.101Z,1011.26
2019-01-25T07:20:04.087Z,1011.26
2019-01-25T07:21:04.072Z,1011.26
2019-01-25T07:22:04.057Z,1011.24
2019-01-25T07:23:04.043Z,1011.27
2019-01-25T07:24:04.036Z,1011.25
2019-01-25T07:25:04.021Z,1011.22
2019-01-25T07:26:04.001Z,1011.26
2019-01-25T07:27:03.988Z,1011.23
2019-01-25T07:28:04.015Z,1011.22
2019-01-25T07:29:03.965Z,1011.21
2019-01-25T07:30:03.944Z,1011.20
2019-01-25T07:31:03.962Z,1011.20
2019-01-25T07:32:03.918Z,1011.21
2019-01-25T07:33:03.906Z,1011.20
2019-01-25T07:34:03.905Z,1011.18
2019-01-25T07:35:03.877Z,1011.19
2019-01-25T07:36:03.863Z,1011.21
2019-01-25T07:37:03.870Z,1011.19
2019-01-25T07:38:03.863Z,1011.17
2019-01-25T07:39:03.826Z,1011.22
2019-01-25T07:40:03.806Z,1011.21
2019-01-25T07:41:03.845Z,1011.24
2019-01-25T07:42:03.814Z,1011.22
2019-01-25T07:43:03.791Z,1011.25
2019-01-25T07:44:03.769Z,1011.27
2019-01-25T07:45:03.804Z,1011.25
2019-01-25T07:46:03.721Z,1011.26
2019-01-25T07:47:03.804Z,1011.24
2019-01-25T07:48:03.695Z,1011.26
2019-01-25T07:49:03.701Z,1011.26
2019-01-25T07:50:03.677Z,1011.28
2019-01-25T07:51:03.688Z,1011.28
2019-01-25T07:52:03.638Z,1011.29
2019-01-25T07:53:03.675Z,1011.25
2019-01-25T07:54:03.632Z,1011.26
2019-01-25T07:55:03.593Z,1011.26
2019-01-25T07:56:03.641Z,1011.30
2019-01-25T07:57:03.577Z,1011.28
2019-01-25T07:58:03.566Z,1011.25
2019-01-25T07:59:03.577Z,1011.28
2019-01-25T08:00:03.541Z,1011.25
2019-01-25T08:01:03.512Z,1011.25
2019-01-25T08:02:03.498Z,1011.25
2019-01-25T08:03:03.499Z,1011.26
2019-01-25T08:04:03.473Z,1011.24
2019-01-25T08:05:03.461Z,1011.27
2019-01-25T08:06:03.440Z,1011.28
2019-01-25T08:07:03.427Z,1011.25
2019-01-25T08:08:03.416Z,1011.27
2019-01-25T08:09:03.399Z,1011.28
2019-01-25T08:10:03.413Z,1011.27
2019-01-25T08:11:03.399Z,1011.27
2019-01-25T08:12:07.658Z,1011.28
2019-01-25T08:13:03.345Z,1011.26
2019-01-25T08:14:03.337Z,1011.26
2019-01-25T08:15:03.346Z,1011.28
2019-01-25T08:16:03.306Z,1011.27
2019-01-25T08:17:03.330Z,1011.25
2019-01-25T08:18:03.275Z,1011.26
2019-01-25T08:19:03.416Z,1011.28
2019-01-25T08:20:03.249Z,1011.27
2019-01-25T08:21:03.234Z,1011.29
2019-01-25T08:22:03.248Z,1011.31
2019-01-25T08:23:03.210Z,1011.30
2019-01-25T08:24:03.204Z,1011.27
2019-01-25T08:25:03.190Z,1011.27
2019-01-25T08:26:03.201Z,1011.30
2019-01-25T08:27:03.172Z,1011.26
2019-01-25T08:28:03.177Z,1011.29
2019-01-25T08:29:03.172Z,1011.31
2019-01-25T08:30:03.109Z,1011.30
2019-01-25T08:31:03.129Z,1011.29
2019-01-25T08:32:03.084Z,1011.29
2019-01-25T08:33:03.068Z,1011.31
2019-01-25T08:34:03.053Z,1011.25
2019-01-25T08:35:03.040Z,1011.26
2019-01-25T08:36:03.045Z,1011.26
2019-01-25T08:37:03.054Z,1011.24
2019-01-25T08:38:03.005Z,1011.22
2019-01-25T08:39:03.016Z,1011.26
2019-01-25T08:40:03.007Z,1011.22
2019-01-25T08:41:02.974Z,1011.26
2019-01-25T08:42:02.975Z,1011.26
2019-01-25T08:43:02.933Z,1011.29
2019-01-25T08:44:02.940Z,1011.26
2019-01-25T08:45:02.920Z,1011.27
2019-01-25T08:46:02.894Z,1011.27
2019-01-25T08:47:02.878Z,1011.27
2019-01-25T08:48:02.889Z,1011.27
2019-01-25T08:49:02.853Z,1011.24
2019-01-25T08:50:02.879Z,1011.20
2019-01-25T08:51:02.821Z,1011.23
2019-01-25T08:52:02.812Z,1011.24
2019-01-25T08:53:02.797Z,1011.24
2019-01-25T08:54:02.822Z,1011.24
2019-01-25T08:55:02.769Z,1011.25
2019-01-25T08:56:02.755Z,1011.24
2019-01-25T08:57:02.760Z,1011.26
2019-01-25T08:58:02.730Z,1011.25
2019-01-25T08:59:02.732Z,1011.28
2019-01-25T09:00:02.699Z,1011.26
2019-01-25T09:01:02.686Z,1011.32
2019-01-25T09:02:02.671Z,1011.28
2019-01-25T09:03:02.662Z,1011.30
2019-01-25T09:04:02.645Z,1011.29
2019-01-25T09:05:02.634Z,1011.28
2019-01-25T09:06:02.623Z,1011.33
2019-01-25T09:07:02.605Z,1011.31
2019-01-25T09:08:02.592Z,1011.32
2019-01-25T09:09:02.582Z,1011.33
2019-01-25T09:10:02.567Z,1011.31
2019-01-25T09:11:02.553Z,1011.32
2019-01-25T09:12:02.538Z,1011.34
2019-01-25T09:13:02.527Z,1011.35
2019-01-25T09:14:02.514Z,1011.35
2019-01-25T09:15:02.500Z,1011.35
2019-01-25T09:16:02.485Z,1011.37
2019-01-25T09:17:02.473Z,1011.40
2019-01-25T09:18:02.460Z,1011.37
2019-01-25T09:19:02.448Z,1011.41
2019-01-25T09:20:02.431Z,1011.37
2019-01-25T09:21:02.420Z,1011.36
2019-01-25T09:22:02.405Z,1011.35
2019-01-25T09:23:02.397Z,1011.35
2019-01-25T09:24:02.380Z,1011.38
2019-01-25T09:25:02.370Z,1011.36
2019-01-25T09:26:02.354Z,1011.36
2019-01-25T09:27:02.343Z,1011.36
2019-01-25T09:28:02.327Z,1011.36
2019-01-25T09:29:02.313Z,1011.38
2019-01-25T09:30:02.302Z,1011.38
2019-01-25T09:31:02.287Z,1011.36
2019-01-25T09:32:02.275Z,1011.39
2019-01-25T09:33:02.267Z,1011.39
2019-01-25T09:34:02.249Z,1011.43
2019-01-25T09:35:02.240Z,1011.44
2019-01-25T09:36:02.231Z,1011.44
2019-01-25T09:37:02.209Z,1011.48
2019-01-25T09:38:02.196Z,1011.48
2019-01-25T09:39:02.182Z,1011.49
2019-01-25T09:40:02.174Z,1011.53
2019-01-25T09:41:02.248Z,1011.53
2019-01-25T09:42:02.143Z,1011.48
2019-01-25T09:43:02.128Z,1011.50
2019-01-25T09:44:02.117Z,1011.47
2019-01-25T09:45:02.103Z,1011.46
2019-01-25T09:46:02.091Z,1011.46
2019-01-25T09:47:02.078Z,1011.43
2019-01-25T09:48:02.064Z,1011.45
2019-01-25T09:49:02.049Z,1011.52
2019-01-25T09:50:02.040Z,1011.45
2019-01-25T09:51:02.024Z,1011.43
2019-01-25T09:52:02.010Z,1011.45
2019-01-25T09:53:01.999Z,1011.44
2019-01-25T09:54:01.985Z,1011.45
2019-01-25T09:55:01.969Z,1011.45
2019-01-25T09:56:01.957Z,1011.47
2019-01-25T09:57:01.943Z,1011.47
2019-01-25T09:58:01.932Z,1011.46
2019-01-25T09:59:01.921Z,1011.50
2019-01-25T10:00:01.904Z,1011.49
2019-01-25T10:01:01.891Z,1011.50
2019-01-25T10:02:01.876Z,1011.50
2019-01-25T10:03:01.868Z,1011.47
2019-01-25T10:04:01.946Z,1011.47
2019-01-25T10:05:01.839Z,1011.46
2019-01-25T10:06:01.821Z,1011.41
2019-01-25T10:07:01.810Z,1011.39
2019-01-25T10:08:01.800Z,1011.38
2019-01-25T10:09:01.786Z,1011.35
2019-01-25T10:10:01.773Z,1011.39
2019-01-25T10:11:01.758Z,1011.35
2019-01-25T10:12:01.743Z,1011.34
2019-01-25T10:13:01.731Z,1011.38
2019-01-25T10:14:01.717Z,1011.37
2019-01-25T10:15:01.724Z,1011.35
2019-01-25T10:16:01.696Z,1011.34
2019-01-25T10:17:01.684Z,1011.35
2019-01-25T10:18:01.667Z,1011.31
2019-01-25T10:19:01.689Z,1011.33
2019-01-25T10:20:01.641Z,1011.32
2019-01-25T10:21:01.629Z,1011.28
2019-01-25T10:22:01.625Z,1011.28
2019-01-25T10:23:01.601Z,1011.30
2019-01-25T10:24:01.591Z,1011.25
2019-01-25T10:25:01.581Z,1011.30
2019-01-25T10:26:01.587Z,1011.26
2019-01-25T10:27:01.550Z,1011.24
2019-01-25T10:28:01.571Z,1011.24
2019-01-25T10:29:01.572Z,1011.21
2019-01-25T10:30:01.513Z,1011.17
2019-01-25T10:31:01.500Z,1011.19
2019-01-25T10:32:01.490Z,1011.22
2019-01-25T10:33:01.476Z,1011.22
2019-01-25T10:34:01.459Z,1011.20
2019-01-25T10:35:01.448Z,1011.20
2019-01-25T10:36:01.434Z,1011.17
2019-01-25T10:37:01.427Z,1011.10
2019-01-25T10:38:01.406Z,1011.15
2019-01-25T10:39:01.394Z,1011.14
2019-01-25T10:40:01.386Z,1011.12
2019-01-25T10:41:01.371Z,1011.15
2019-01-25T10:42:01.357Z,1011.08
2019-01-25T10:43:01.345Z,1011.08
2019-01-25T10:44:01.331Z,1011.07
2019-01-25T10:45:04.461Z,1011.11
2019-01-25T10:46:01.306Z,1011.14
2019-01-25T10:47:01.293Z,1011.12
2019-01-25T10:48:01.280Z,1011.14
2019-01-25T10:49:01.268Z,1011.15
2019-01-25T10:50:01.254Z,1011.13
2019-01-25T10:51:01.240Z,1011.11
2019-01-25T10:52:01.227Z,1011.14
2019-01-25T10:53:01.216Z,1011.11
2019-01-25T10:54:01.201Z,1011.15
2019-01-25T10:55:01.189Z,1011.13
2019-01-25T10:56:01.176Z,1011.10
2019-01-25T10:57:01.167Z,1011.11
2019-01-25T10:58:01.149Z,1011.10
2019-01-25T10:59:01.137Z,1011.13
2019-01-25T11:00:01.127Z,1011.05
2019-01-25T11:01:01.139Z,1011.10
2019-01-25T11:02:01.111Z,1011.07
2019-01-25T11:03:01.089Z,1011.04
2019-01-25T11:04:01.074Z,1011.00
2019-01-25T11:05:01.066Z,1011.01
2019-01-25T11:06:01.048Z,1011.03
2019-01-25T11:07:01.033Z,1011.05
2019-01-25T11:08:01.033Z,1011.04
2019-01-25T11:09:01.032Z,1011.03
2019-01-25T11:10:00.996Z,1011.02
2019-01-25T11:11:00.984Z,1011.02
2019-01-25T11:12:00.971Z,1010.99
2019-01-25T11:13:01.359Z,1010.96
2019-01-25T11:14:00.946Z,1010.96
2019-01-25T11:15:01.450Z,1010.96
2019-01-25T11:16:00.922Z,1010.96
2019-01-25T11:17:00.909Z,1010.95
2019-01-25T11:18:00.895Z,1010.95
2019-01-25T11:19:00.881Z,1011.00
2019-01-25T11:20:00.871Z,1010.97
2019-01-25T11:21:00.854Z,1010.96
2019-01-25T11:22:00.843Z,1010.97
2019-01-25T11:23:00.835Z,1010.93
2019-01-25T11:24:00.820Z,1010.97
2019-01-25T11:25:00.805Z,1011.02
2019-01-25T11:26:00.793Z,1010.98
2019-01-25T11:27:00.781Z,1011.02
2019-01-25T11:28:00.767Z,1010.99
2019-01-25T11:29:00.758Z,1010.97
2019-01-25T11:30:00.742Z,1011.01
2019-01-25T11:31:00.729Z,1010.97
2019-01-25T11:32:00.717Z,1010.97
2019-01-25T11:33:00.705Z,1010.94
2019-01-25T11:34:00.692Z,1010.99
2019-01-25T11:35:00.681Z,1010.97
2019-01-25T11:36:00.669Z,1010.97
2019-01-25T11:37:00.663Z,1010.93
2019-01-25T11:38:00.643Z,1010.92
2019-01-25T11:39:00.631Z,1010.93
2019-01-25T11:40:00.620Z,1010.93
2019-01-25T11:41:00.605Z,1010.93
2019-01-25T11:42:00.593Z,1010.93
2019-01-25T11:43:07.900Z,1010.95
2019-01-25T11:44:00.566Z,1010.98
2019-01-25T11:45:00.559Z,1010.96
2019-01-25T11:46:00.541Z,1010.93
2019-01-25T11:47:00.533Z,1010.88
2019-01-25T11:48:00.517Z,1010.87
2019-01-25T11:49:00.506Z,1010.87
2019-01-25T11:50:00.495Z,1010.82
2019-01-25T11:51:00.480Z,1010.90
2019-01-25T11:52:00.468Z,1010.92
2019-01-25T11:53:00.455Z,1010.87
2019-01-25T11:54:00.445Z,1010.85
2019-01-25T11:55:00.430Z,1010.80
2019-01-25T11:56:00.422Z,1010.84
2019-01-25T11:57:00.428Z,1010.81
2019-01-25T11:58:00.392Z,1010.79
2019-01-25T11:59:00.379Z,1010.78
2019-01-25T12:00:00.384Z,1010.84
2019-01-25T12:01:00.356Z,1010.85
2019-01-25T12:02:00.348Z,1010.85
2019-01-25T12:03:00.330Z,1010.88
2019-01-25T12:04:00.317Z,1010.84
2019-01-25T12:05:00.306Z,1010.84